Time;durP1;ratioP1;P1;durP2;ratioP2;P2;SDS_P1;SDS_P2;PMS_P1;PMS_P2;Temp;Humidity;BMP_temperature;BMP_pressure;BME280_temperature;BME280_humidity;BME280_pressure;Samples;Min_cycle;Max_cycle;Signal;HPM_P1;HPM_P2
2021/10/25 00:00:56;;;;;;;9.10;5.30;;;;;;;8.51;83.32;101853.75;4994415;28;20404;-44
2021/10/25 00:03:23;;;;;;;12.38;6.55;;;;;;;8.48;83.57;101847.94;4994241;28;20042;-46
2021/10/25 00:05:51;;;;;;;12.80;6.15;;;;;;;8.48;83.50;101853.38;4994501;28;20049;-45
2021/10/25 00:08:19;;;;;;;12.77;7.38;;;;;;;8.48;84.01;101856.09;4994455;28;20398;-46
2021/10/25 00:10:46;;;;;;;11.38;5.88;;;;;;;8.49;83.16;101845.00;4994603;28;20046;-46
2021/10/25 00:13:15;;;;;;;10.88;5.68;;;;;;;8.46;83.71;101844.63;4994308;28;20046;-46
2021/10/25 00:15:42;;;;;;;12.63;6.38;;;;;;;8.48;83.70;101845.22;4994096;28;20053;-46
2021/10/25 00:18:10;;;;;;;10.07;5.47;;;;;;;8.48;83.39;101847.94;4993860;28;20410;-43
2021/10/25 00:20:38;;;;;;;10.43;5.80;;;;;;;8.45;83.99;101841.09;4994179;28;20042;-43
2021/10/25 00:23:06;;;;;;;10.10;5.40;;;;;;;8.41;82.91;101831.72;4994304;28;20073;-46
2021/10/25 00:25:34;;;;;;;10.38;5.95;;;;;;;8.36;83.31;101844.31;4993565;28;20038;-46
2021/10/25 00:28:02;;;;;;;10.20;6.00;;;;;;;8.39;84.31;101841.94;4980685;28;20050;-45
2021/10/25 00:30:29;;;;;;;10.07;5.60;;;;;;;8.41;83.66;101833.63;4993807;28;20517;-45
2021/10/25 00:32:57;;;;;;;10.25;5.47;;;;;;;8.40;83.90;101834.69;4994087;28;20045;-46
2021/10/25 00:35:24;;;;;;;10.57;5.55;;;;;;;8.40;84.13;101826.53;4991299;28;20046;-46
2021/10/25 00:37:52;;;;;;;10.77;6.38;;;;;;;8.41;83.61;101831.72;4991982;28;20053;-46
2021/10/25 00:40:20;;;;;;;10.88;5.93;;;;;;;8.43;83.56;101840.47;4993427;28;20042;-47
2021/10/25 00:42:47;;;;;;;14.27;7.18;;;;;;;8.50;83.79;101835.78;4993519;28;20046;-44
2021/10/25 00:45:17;;;;;;;9.80;5.43;;;;;;;8.55;83.33;101837.00;4992624;28;20054;-44
2021/10/25 00:47:45;;;;;;;11.27;6.30;;;;;;;8.60;83.52;101835.25;4993158;28;20053;-45
2021/10/25 00:50:13;;;;;;;9.23;4.93;;;;;;;8.58;83.01;101831.91;4992994;28;20401;-46
2021/10/25 00:52:42;;;;;;;10.82;6.15;;;;;;;8.57;83.61;101830.28;4993721;28;20046;-46
2021/10/25 00:55:12;;;;;;;9.07;5.13;;;;;;;8.57;82.45;101830.28;4992087;28;20092;-43
2021/10/25 00:57:41;;;;;;;9.90;5.30;;;;;;;8.56;83.66;101819.63;4993204;28;20054;-45
2021/10/25 01:00:11;;;;;;;9.38;5.70;;;;;;;8.56;83.58;101827.78;4992049;28;20050;-46
2021/10/25 01:02:40;;;;;;;9.43;5.18;;;;;;;8.55;82.56;101831.56;4992097;28;20523;-45
2021/10/25 01:05:09;;;;;;;10.02;5.22;;;;;;;8.52;82.92;101836.41;4992993;28;20115;-43
2021/10/25 01:07:40;;;;;;;8.30;4.90;;;;;;;8.49;83.21;101828.72;4992662;28;20409;-46
2021/10/25 01:10:08;;;;;;;9.90;5.07;;;;;;;8.47;83.38;101830.81;4992922;28;20074;-46
2021/10/25 01:12:36;;;;;;;10.23;4.70;;;;;;;8.39;82.32;101828.38;4992551;28;20030;-43
2021/10/25 01:15:04;;;;;;;8.20;4.80;;;;;;;8.29;82.55;101830.81;4992181;28;20053;-47
2021/10/25 01:17:35;;;;;;;12.68;5.00;;;;;;;8.24;83.00;101826.06;4991360;28;20046;-46
2021/10/25 01:20:04;;;;;;;9.38;5.03;;;;;;;8.23;83.32;101824.41;4992889;28;20046;-47
2021/10/25 01:22:32;;;;;;;10.15;5.20;;;;;;;8.23;83.69;101818.16;4989637;28;20057;-46
2021/10/25 01:25:01;;;;;;;10.82;4.88;;;;;;;8.25;83.52;101816.03;4991672;28;20050;-46
2021/10/25 01:27:30;;;;;;;11.02;5.20;;;;;;;8.28;84.06;101823.72;4992271;28;20042;-47
2021/10/25 01:29:58;;;;;;;8.68;4.80;;;;;;;8.34;84.09;101820.09;4992900;28;20046;-46
2021/10/25 01:32:26;;;;;;;8.98;5.53;;;;;;;8.40;83.49;101813.78;4991165;28;20039;-47
2021/10/25 01:34:54;;;;;;;11.40;5.00;;;;;;;8.47;83.55;101822.69;4991803;28;20047;-47
2021/10/25 01:37:21;;;;;;;10.35;4.80;;;;;;;8.53;82.94;101820.91;4991023;28;20486;-46
2021/10/25 01:39:49;;;;;;;8.82;4.97;;;;;;;8.56;83.69;101811.47;4974488;28;20054;-46
2021/10/25 01:42:17;;;;;;;11.40;5.10;;;;;;;8.58;83.19;101803.94;4991571;28;20054;-45
2021/10/25 01:44:45;;;;;;;11.25;5.22;;;;;;;8.61;83.29;101808.91;4990522;28;20089;-46
2021/10/25 01:47:13;;;;;;;7.28;4.60;;;;;;;8.61;82.75;101804.31;4991193;28;20402;-45
2021/10/25 01:49:40;;;;;;;8.15;4.82;;;;;;;8.64;82.70;101812.00;4992592;28;20401;-43
2021/10/25 01:52:09;;;;;;;9.40;4.70;;;;;;;8.63;82.92;101807.59;4991230;28;20112;-46
2021/10/25 01:54:44;;;;;;;6.90;4.05;;;;;;;8.66;83.23;101804.44;4989407;28;20070;-47
2021/10/25 01:57:11;;;;;;;9.20;4.50;;;;;;;8.70;82.53;101807.50;5006759;28;20034;-45
2021/10/25 01:59:40;;;;;;;7.93;4.43;;;;;;;8.72;83.04;101810.84;4990888;28;20042;-46
2021/10/25 02:02:09;;;;;;;8.30;4.65;;;;;;;8.76;82.46;101812.03;4991070;28;20049;-43
2021/10/25 02:04:37;;;;;;;9.38;4.30;;;;;;;8.79;82.55;101806.13;4990365;28;20100;-46
2021/10/25 02:07:05;;;;;;;9.70;4.63;;;;;;;8.77;81.99;101802.81;4990728;28;20116;-46
2021/10/25 02:09:33;;;;;;;10.90;4.72;;;;;;;8.73;82.31;101791.59;4991063;28;20078;-48
2021/10/25 02:12:00;;;;;;;9.05;4.50;;;;;;;8.70;82.86;101793.94;4991007;28;20042;-44
2021/10/25 02:14:29;;;;;;;9.25;4.53;;;;;;;8.64;82.81;101792.16;4991047;28;20409;-48
2021/10/25 02:16:57;;;;;;;9.88;4.45;;;;;;;8.60;82.58;101793.66;4986800;28;20046;-46
2021/10/25 02:19:29;;;;;;;8.35;4.20;;;;;;;8.56;83.33;101798.72;5007697;28;20054;-46
2021/10/25 02:22:10;;;;;;;8.73;4.20;;;;;;;8.52;83.04;101792.94;4990359;28;20129;-43
2021/10/25 02:24:38;;;;;;;7.22;4.10;;;;;;;8.51;83.65;101794.00;4986836;28;20049;-46
2021/10/25 02:27:06;;;;;;;9.65;4.32;;;;;;;8.53;84.24;101788.31;4985890;28;20133;-46
2021/10/25 02:29:36;;;;;;;12.85;4.60;;;;;;;8.55;83.92;101785.38;4990773;28;20448;-46
2021/10/25 02:32:18;;;;;;;9.10;4.45;;;;;;;8.60;84.84;101774.66;4990890;28;20038;-44
2021/10/25 02:34:48;;;;;;;8.23;4.20;;;;;;;8.65;84.02;101778.31;4990155;28;20601;-48
2021/10/25 02:37:18;;;;;;;9.65;4.40;;;;;;;8.69;84.24;101773.28;4989059;28;20134;-46
2021/10/25 02:39:49;;;;;;;7.40;3.83;;;;;;;8.70;84.54;101764.03;4990384;28;20142;-45
2021/10/25 02:42:17;;;;;;;8.43;4.10;;;;;;;8.72;83.99;101770.09;4990865;28;20101;-46
2021/10/25 02:44:45;;;;;;;11.00;4.22;;;;;;;8.75;84.52;101756.03;4992152;28;20038;-47
2021/10/25 02:47:17;;;;;;;8.75;4.30;;;;;;;8.79;84.19;101762.66;4989466;28;20055;-45
2021/10/25 02:49:45;;;;;;;8.63;4.00;;;;;;;8.81;84.34;101755.09;4990594;28;20054;-47
2021/10/25 02:52:13;;;;;;;9.85;4.00;;;;;;;8.81;84.33;101749.66;4990178;28;20042;-47
2021/10/25 02:54:41;;;;;;;7.18;4.05;;;;;;;8.82;84.44;101754.03;4990649;28;20038;-47
2021/10/25 02:57:09;;;;;;;7.05;3.97;;;;;;;8.85;84.03;101756.31;4987845;28;20873;-45
2021/10/25 02:59:38;;;;;;;7.85;3.88;;;;;;;8.87;84.40;101759.59;4986996;28;20038;-43
2021/10/25 03:02:11;;;;;;;7.47;4.10;;;;;;;8.85;83.90;101750.00;4985310;28;20466;-46
2021/10/25 03:04:39;;;;;;;9.07;4.30;;;;;;;8.86;84.43;101752.50;4986194;28;20553;-46
2021/10/25 03:07:07;;;;;;;8.10;3.97;;;;;;;8.87;84.54;101751.44;4991421;28;20042;-47
2021/10/25 03:09:41;;;;;;;8.10;3.50;;;;;;;8.84;84.15;101738.31;4991942;28;20054;-46
2021/10/25 03:12:09;;;;;;;7.22;4.00;;;;;;;8.85;84.35;101745.44;4994120;28;20137;-45
2021/10/25 03:14:39;;;;;;;9.05;4.10;;;;;;;8.87;84.56;101756.88;4993804;28;20133;-47
2021/10/25 03:17:07;;;;;;;6.70;4.03;;;;;;;8.93;84.75;101747.78;4992453;28;20070;-47
2021/10/25 03:19:48;;;;;;;9.23;4.10;;;;;;;8.96;84.52;101758.19;4994831;28;20035;-48
2021/10/25 03:22:15;;;;;;;6.60;3.55;;;;;;;8.99;84.15;101746.03;4994683;28;20129;-45
2021/10/25 03:24:44;;;;;;;7.95;4.05;;;;;;;9.01;84.45;101753.94;4989399;28;20043;-43
2021/10/25 03:27:14;;;;;;;7.38;3.95;;;;;;;8.99;84.31;101746.03;4988497;28;20531;-44
2021/10/25 03:29:42;;;;;;;7.78;3.85;;;;;;;8.94;83.62;101749.44;4993508;28;20125;-45
2021/10/25 03:32:09;;;;;;;10.10;4.07;;;;;;;8.88;84.20;101747.66;4994093;28;20398;-45
2021/10/25 03:34:39;;;;;;;8.52;4.35;;;;;;;8.87;84.93;101737.84;4993134;28;20045;-44
2021/10/25 03:37:08;;;;;;;9.02;4.18;;;;;;;8.89;84.56;101735.72;4993835;28;20512;-47
2021/10/25 03:39:38;;;;;;;8.20;4.18;;;;;;;8.88;84.81;101733.25;4992875;28;20069;-47
2021/10/25 03:42:13;;;;;;;8.05;4.22;;;;;;;8.85;85.12;101737.28;4993764;28;20047;-45
2021/10/25 03:47:17;;;;;;;8.07;4.00;;;;;;;8.79;85.43;101738.19;4993200;28;20042;-43
2021/10/25 03:49:54;;;;;;;;;;;;;;;8.79;85.05;101734.66;4992999;28;20653;-46
2021/10/25 03:52:57;;;;;;;8.75;3.80;;;;;;;8.79;85.96;101740.91;5011959;28;19933;-44
2021/10/25 03:55:35;;;;;;;10.82;4.38;;;;;;;8.83;85.59;101731.25;5011666;28;20053;-45
2021/10/25 04:28:52;;;;;;;9.85;4.13;;;;;;;8.84;86.39;101741.03;4917460;29;20548;-47
2021/10/25 04:31:20;;;;;;;7.72;4.07;;;;;;;8.86;86.75;101738.09;4941874;28;20042;-47
2021/10/25 04:33:58;;;;;;;8.23;3.95;;;;;;;8.89;86.67;101740.34;4989377;28;20038;-46
2021/10/25 04:37:02;;;;;;;10.77;3.88;;;;;;;8.95;86.72;101744.84;4962033;28;20626;-46
2021/10/25 04:39:47;;;;;;;;;;;;;;;8.95;86.32;101737.53;4953232;28;20147;-45
2021/10/25 04:42:17;;;;;;;8.30;3.92;;;;;;;8.95;85.76;101734.81;4952060;29;20428;-45
2021/10/25 04:44:48;;;;;;;9.75;3.90;;;;;;;8.90;86.35;101728.44;4952495;28;20086;-45
2021/10/25 04:47:16;;;;;;;8.50;3.67;;;;;;;8.89;86.75;101735.72;4962304;28;20055;-45
2021/10/25 04:49:48;;;;;;;5.97;3.58;;;;;;;8.92;86.81;101735.28;4949000;28;20046;-46
2021/10/25 04:52:27;;;;;;;6.38;3.63;;;;;;;8.98;87.02;101732.69;4954110;28;20075;-45
2021/10/25 04:54:55;;;;;;;7.68;3.75;;;;;;;8.99;86.63;101726.16;4971849;28;20129;-45
2021/10/25 04:57:22;;;;;;;8.73;4.05;;;;;;;8.99;86.38;101731.59;4955726;28;20090;-45
2021/10/25 04:59:50;;;;;;;8.43;3.90;;;;;;;8.96;86.04;101731.00;4951514;28;20869;-43
2021/10/25 05:02:18;;;;;;;9.35;4.30;;;;;;;8.92;86.76;101718.97;4951308;28;20203;-46
2021/10/25 05:04:46;;;;;;;9.05;4.25;;;;;;;8.92;87.15;101718.97;4949160;28;20067;-46
2021/10/25 05:07:13;;;;;;;8.20;4.10;;;;;;;8.93;86.52;101720.63;4958667;28;20137;-44
2021/10/25 05:09:41;;;;;;;7.78;4.10;;;;;;;8.99;86.70;101716.13;4969490;28;20062;-46
2021/10/25 05:12:13;;;;;;;7.38;3.72;;;;;;;9.03;86.83;101713.78;5001958;28;20137;-46
2021/10/25 05:14:42;;;;;;;7.97;3.78;;;;;;;9.02;86.49;101710.22;4991719;28;20050;-47
2021/10/25 05:17:10;;;;;;;7.80;3.63;;;;;;;9.00;86.73;101703.38;4991044;28;20046;-44
2021/10/25 05:19:42;;;;;;;7.47;4.07;;;;;;;9.01;86.43;101713.19;4990470;28;20415;-45
2021/10/25 05:22:17;;;;;;;7.60;3.80;;;;;;;9.03;86.67;101700.19;4991137;28;20042;-45
2021/10/25 05:24:45;;;;;;;6.45;3.55;;;;;;;9.05;86.87;101695.34;4992631;28;20043;-45
2021/10/25 05:27:13;;;;;;;8.93;4.22;;;;;;;9.05;86.75;101696.16;4992303;28;20923;-45
2021/10/25 05:29:41;;;;;;;7.32;4.03;;;;;;;9.04;86.13;101701.81;4992650;28;20060;-45
2021/10/25 05:32:09;;;;;;;8.75;3.60;;;;;;;9.02;85.92;101698.50;4991007;28;20397;-46
2021/10/25 05:34:37;;;;;;;7.25;3.60;;;;;;;9.03;86.71;101703.72;4992446;28;20050;-46
2021/10/25 05:37:05;;;;;;;8.25;4.10;;;;;;;9.06;86.41;101695.09;4991662;28;20046;-46
2021/10/25 05:39:34;;;;;;;8.45;4.40;;;;;;;9.04;86.47;101699.94;4991127;28;20050;-46
2021/10/25 05:42:05;;;;;;;10.27;4.75;;;;;;;9.01;86.21;101705.84;5007248;28;20038;-43
2021/10/25 05:44:34;;;;;;;7.70;3.90;;;;;;;8.96;86.32;101692.97;4990799;28;20569;-43
2021/10/25 05:47:01;;;;;;;11.10;4.35;;;;;;;8.93;87.04;101698.88;4990889;28;20034;-47
2021/10/25 05:49:29;;;;;;;10.48;3.95;;;;;;;8.92;87.15;101697.22;4989656;28;20065;-46
2021/10/25 05:51:58;;;;;;;6.72;3.60;;;;;;;8.92;86.88;101689.06;4989955;28;20050;-44
2021/10/25 05:54:26;;;;;;;11.32;4.30;;;;;;;8.93;87.05;101690.72;4991377;28;20057;-48
2021/10/25 05:57:00;;;;;;;9.25;4.10;;;;;;;8.92;87.04;101697.22;4982561;28;20054;-46
2021/10/25 05:59:31;;;;;;;8.48;3.97;;;;;;;8.93;86.96;101693.44;4987714;28;20042;-48
2021/10/25 06:02:11;;;;;;;7.68;4.00;;;;;;;8.92;87.05;101686.34;4290895;28;10000136;-47
2021/10/25 06:04:43;;;;;;;8.52;4.13;;;;;;;8.92;87.10;101680.94;4985381;28;20050;-46
2021/10/25 06:07:22;;;;;;;8.93;3.72;;;;;;;8.90;87.33;101688.47;4986453;28;20118;-45
2021/10/25 06:09:50;;;;;;;7.40;3.47;;;;;;;8.88;88.24;101682.44;4988832;28;20086;-46
2021/10/25 06:12:20;;;;;;;9.57;4.18;;;;;;;8.88;87.41;101685.16;4988728;28;20100;-47
2021/10/25 06:15:21;;;;;;;7.63;3.83;;;;;;;8.86;87.72;101692.72;4976695;28;20178;-48
2021/10/25 06:20:25;;;;;;;8.10;3.88;;;;;;;8.83;87.84;101693.19;4990902;28;20041;-46
2021/10/25 06:22:54;;;;;;;8.75;3.78;;;;;;;8.84;88.05;101689.41;4989013;28;20046;-44
2021/10/25 06:25:24;;;;;;;8.57;3.88;;;;;;;8.83;87.99;101687.75;4989563;28;20078;-46
2021/10/25 06:28:14;;;;;;;8.98;3.88;;;;;;;8.83;87.93;101690.47;4988182;28;20034;-47
2021/10/25 06:30:56;;;;;;;8.90;4.30;;;;;;;8.82;88.16;101690.72;4989474;28;20570;-46
2021/10/25 06:33:27;;;;;;;9.80;4.07;;;;;;;8.82;87.89;101696.97;4987184;28;20078;-48
2021/10/25 06:36:19;;;;;;;10.45;4.40;;;;;;;8.85;88.25;101695.66;4989359;28;20134;-47
2021/10/25 06:39:10;;;;;;;8.13;3.78;;;;;;;8.87;88.52;101698.97;4988079;28;20408;-47
2021/10/25 06:41:45;;;;;;;10.50;3.53;;;;;;;8.90;88.12;101693.09;4980347;28;20078;-47
2021/10/25 06:44:21;;;;;;;7.43;3.72;;;;;;;8.92;87.79;101697.22;4987145;28;20059;-45
2021/10/25 06:46:48;;;;;;;7.65;3.85;;;;;;;8.94;87.98;101700.50;4992449;28;20034;-48
2021/10/25 06:49:21;;;;;;;6.75;3.55;;;;;;;8.97;88.10;101699.22;4992531;28;20096;-46
2021/10/25 06:51:49;;;;;;;9.43;3.83;;;;;;;9.00;87.70;101708.81;4976230;28;20039;-45
2021/10/25 06:54:19;;;;;;;12.35;4.75;;;;;;;9.01;87.64;101703.13;4994564;28;20474;-44
2021/10/25 06:56:47;;;;;;;7.90;3.47;;;;;;;9.04;87.70;101699.09;4994037;28;20583;-46
2021/10/25 06:59:15;;;;;;;6.35;3.38;;;;;;;9.05;87.25;101706.22;5008063;28;20053;-47
2021/10/25 07:01:43;;;;;;;9.18;3.63;;;;;;;9.06;87.48;101707.84;4995397;28;20397;-48
2021/10/25 07:04:12;;;;;;;8.13;3.67;;;;;;;9.06;87.62;101697.81;4986533;28;20588;-48
2021/10/25 07:06:40;;;;;;;8.15;3.60;;;;;;;9.08;87.16;101703.84;4996114;28;20461;-47
2021/10/25 07:09:09;;;;;;;8.30;3.83;;;;;;;9.08;87.11;101705.72;4989614;28;20061;-47
2021/10/25 07:11:42;;;;;;;9.40;4.00;;;;;;;9.07;87.37;101704.09;4992575;28;20267;-47
2021/10/25 07:14:10;;;;;;;10.65;3.88;;;;;;;9.08;87.05;101705.72;4991285;28;20410;-45
2021/10/25 07:16:53;;;;;;;9.77;4.10;;;;;;;9.11;86.99;101705.25;4995182;28;20043;-45
2021/10/25 07:19:33;;;;;;;9.07;3.88;;;;;;;9.13;87.19;101711.28;5001836;28;20398;-47
2021/10/25 08:02:58;;;;;;;11.65;5.20;;;;;;;9.47;86.80;101719.66;5068615;28;20387;-48
2021/10/25 08:10:57;;;;;;;8.35;4.00;;;;;;;9.47;87.25;101723.19;5045968;28;20060;-47
2021/10/25 08:13:30;;;;;;;7.07;3.70;;;;;;;9.47;87.02;101720.47;5045918;28;20057;-48
2021/10/25 08:15:58;;;;;;;8.32;3.70;;;;;;;9.47;87.27;101709.59;5029676;28;20057;-44
2021/10/25 08:18:52;;;;;;;13.35;4.07;;;;;;;9.49;87.19;101717.53;5015700;28;20518;-48
2021/10/25 08:21:21;;;;;;;8.05;3.83;;;;;;;9.49;87.02;101721.06;5046030;28;20055;-49
2021/10/25 08:23:51;;;;;;;9.43;4.00;;;;;;;9.53;87.26;101729.59;5045531;28;20049;-47
2021/10/25 08:26:54;;;;;;;10.15;4.75;;;;;;;9.53;87.18;101724.16;5006012;28;20052;-47
2021/10/25 08:29:23;;;;;;;9.50;4.25;;;;;;;9.55;87.67;101727.47;4979888;28;20569;-45
2021/10/25 08:32:49;;;;;;;6.80;3.50;;;;;;;9.58;87.36;101722.38;4989849;28;20081;-48
2021/10/25 08:34:56;;;;;;;8.73;4.10;;;;;;;9.58;87.28;101722.38;4986776;28;20046;-46
2021/10/25 08:40:36;;;;;;;11.65;4.40;;;;;;;9.82;91.57;101725.88;4991981;28;20058;-56
2021/10/25 08:43:05;;;;;;;15.85;4.63;;;;;;;9.80;89.93;101717.09;5002697;28;20047;-48
2021/10/25 08:45:34;;;;;;;16.00;4.78;;;;;;;9.89;91.79;101720.28;4970417;28;20078;-47
2021/10/25 08:48:05;;;;;;;11.65;4.65;;;;;;;9.91;92.10;101723.59;4989330;28;20452;-47
2021/10/25 08:50:34;;;;;;;8.23;4.40;;;;;;;9.86;89.79;101717.22;5025752;28;20050;-47
2021/10/25 08:53:09;;;;;;;9.80;4.10;;;;;;;9.85;90.08;101721.00;5008748;28;20056;-47
2021/10/25 08:55:57;;;;;;;7.05;3.78;;;;;;;9.81;89.03;101716.06;5024947;28;20057;-48
2021/10/25 08:58:52;;;;;;;13.57;3.80;;;;;;;9.83;89.28;101718.53;5017252;28;20117;-46
2021/10/25 09:01:34;;;;;;;8.10;4.10;;;;;;;9.86;89.17;101714.50;5017669;28;20054;-48
2021/10/25 09:04:19;;;;;;;7.90;3.80;;;;;;;9.84;88.91;101708.44;5046548;28;20569;-48
2021/10/25 09:06:57;;;;;;;8.68;3.92;;;;;;;9.82;88.79;101717.69;5046464;28;20103;-47
2021/10/25 09:09:27;;;;;;;10.40;4.10;;;;;;;9.85;89.00;101721.00;5036973;28;20571;-48
2021/10/25 09:12:04;;;;;;;8.73;4.28;;;;;;;9.85;88.92;101716.38;5043015;28;20041;-45
2021/10/25 09:14:43;;;;;;;8.50;4.05;;;;;;;9.86;88.89;101714.50;5033062;28;20049;-46
2021/10/25 09:17:10;;;;;;;8.73;3.70;;;;;;;9.88;89.13;101712.34;5032579;28;20515;-49
2021/10/25 09:19:51;;;;;;;7.80;4.10;;;;;;;9.92;88.92;101710.81;5026913;28;20041;-47
2021/10/25 09:22:22;;;;;;;9.27;3.72;;;;;;;9.94;88.77;101705.97;5031970;28;20048;-47
2021/10/25 09:24:58;;;;;;;7.30;3.75;;;;;;;9.96;88.87;101718.25;5032382;28;20404;-47
2021/10/25 09:27:43;;;;;;;7.32;3.63;;;;;;;9.98;88.70;101712.56;5027172;28;20476;-47
2021/10/25 09:30:21;;;;;;;10.82;4.30;;;;;;;9.99;88.67;101712.31;5026678;28;20041;-47
2021/10/25 09:32:50;;;;;;;9.70;4.13;;;;;;;10.02;89.10;101711.00;5032452;28;20400;-49
2021/10/25 09:35:46;;;;;;;8.93;3.70;;;;;;;10.03;88.68;101702.59;5032714;28;20052;-49
2021/10/25 09:38:22;;;;;;;13.05;4.38;;;;;;;10.06;88.82;101706.75;5025705;28;20484;-43
2021/10/25 09:49:16;;;;;;;14.63;5.57;;;;;;;10.16;89.38;101706.09;5041665;28;20566;-46
2021/10/25 09:51:58;;;;;;;12.45;5.32;;;;;;;10.20;89.01;101699.94;5032169;28;20049;-44
2021/10/25 09:54:32;;;;;;;13.13;4.53;;;;;;;10.23;89.47;101701.34;5015793;28;20140;-46
2021/10/25 09:57:04;;;;;;;13.93;5.43;;;;;;;10.29;89.35;101699.56;5016181;28;20133;-48
2021/10/25 09:59:58;;;;;;;17.20;6.00;;;;;;;10.34;89.50;101699.66;4988278;28;20050;-47
2021/10/25 10:02:42;;;;;;;8.77;3.80;;;;;;;10.30;89.52;101696.59;4991139;28;20130;-48
2021/10/25 10:05:18;;;;;;;10.88;4.53;;;;;;;10.30;89.57;101691.16;4975131;28;20069;-48
2021/10/25 10:07:50;;;;;;;8.43;4.10;;;;;;;10.30;89.51;101706.69;4971529;28;20055;-47
2021/10/25 10:10:33;;;;;;;12.40;4.55;;;;;;;10.30;89.86;101682.16;4961965;28;20437;-47
2021/10/25 10:13:16;;;;;;;9.10;4.30;;;;;;;10.32;90.04;101686.28;4972063;28;20054;-48
2021/10/25 10:16:00;;;;;;;12.40;4.60;;;;;;;10.35;90.22;101693.16;4977675;28;20131;-51
2021/10/25 10:18:30;;;;;;;12.07;5.05;;;;;;;10.36;90.18;101684.72;4986222;28;20050;-46
2021/10/25 10:21:37;;;;;;;15.88;5.40;;;;;;;10.42;91.30;101682.91;4941465;29;20418;-45
2021/10/25 10:24:11;;;;;;;10.82;4.68;;;;;;;10.47;90.58;101684.91;4936172;29;20066;-46
2021/10/25 10:26:41;;;;;;;8.80;4.63;;;;;;;10.49;90.63;101694.50;4952525;28;20046;-48
2021/10/25 10:29:16;;;;;;;11.50;4.13;;;;;;;10.52;90.29;101693.16;4952011;28;20049;-46
2021/10/25 10:32:05;;;;;;;9.68;4.35;;;;;;;10.53;90.07;101692.91;4951598;28;20327;-47
2021/10/25 10:34:43;;;;;;;8.35;3.92;;;;;;;10.56;90.33;101695.16;4952156;28;20039;-46
2021/10/25 10:37:32;;;;;;;9.45;4.15;;;;;;;10.56;90.53;101694.31;4964787;28;20051;-46
2021/10/25 10:40:12;;;;;;;12.18;4.68;;;;;;;10.61;89.88;101700.69;4972122;28;20046;-48
2021/10/25 10:43:24;;;;;;;13.63;6.03;;;;;;;10.71;91.32;101701.94;4986677;28;20097;-47
2021/10/25 10:46:01;;;;;;;12.30;5.18;;;;;;;10.75;90.86;101689.44;4974881;28;20493;-49
2021/10/25 10:48:32;;;;;;;10.88;4.95;;;;;;;10.77;90.60;101692.75;4966312;28;20507;-49
2021/10/25 10:51:03;;;;;;;16.40;6.25;;;;;;;10.79;90.62;101694.16;4987735;28;20053;-48
2021/10/25 10:53:34;;;;;;;16.23;5.75;;;;;;;10.83;91.32;101689.06;5012712;28;20072;-48
2021/10/25 10:56:18;;;;;;;21.10;8.48;;;;;;;10.88;93.71;101697.31;5031365;28;20404;-48
2021/10/25 10:59:07;;;;;;;16.52;6.88;;;;;;;10.94;95.57;101696.28;5026282;28;20057;-47
2021/10/25 11:01:35;;;;;;;8.40;4.68;;;;;;;10.85;92.17;101698.63;5025375;28;20065;-46
2021/10/25 11:04:05;;;;;;;9.52;4.80;;;;;;;10.77;91.77;101699.03;4671638;28;10000200;-46
2021/10/25 11:06:33;;;;;;;8.57;4.47;;;;;;;10.72;91.78;101693.50;5024180;28;20141;-47
2021/10/25 11:09:09;;;;;;;10.82;5.15;;;;;;;10.71;91.49;101700.03;5027401;28;20037;-47
2021/10/25 11:11:39;;;;;;;10.80;4.70;;;;;;;10.74;91.38;101695.97;5024293;28;20046;-48
2021/10/25 11:14:15;;;;;;;14.85;6.55;;;;;;;10.83;92.71;101692.59;5018478;28;20058;-46
2021/10/25 11:19:11;;;;;;;12.95;6.40;;;;;;;10.97;94.62;101695.00;5029548;28;20037;-47
2021/10/25 11:21:46;;;;;;;13.20;5.40;;;;;;;11.00;94.42;101687.13;5015734;28;20037;-45
2021/10/25 11:24:16;;;;;;;32.80;5.47;;;;;;;11.05;93.62;101692.66;5013954;28;20069;-45
2021/10/25 11:26:57;;;;;;;9.60;4.82;;;;;;;11.09;93.38;101677.47;5018575;28;20406;-47
2021/10/25 11:29:31;;;;;;;10.35;4.70;;;;;;;11.12;92.18;101686.22;5004847;28;20037;-46
2021/10/25 11:32:01;;;;;;;10.45;4.32;;;;;;;11.12;92.10;101673.41;5012901;28;20117;-47
2021/10/25 11:34:38;;;;;;;12.25;4.72;;;;;;;11.13;92.58;101682.41;5028853;28;20555;-48
2021/10/25 11:37:11;;;;;;;9.38;4.55;;;;;;;11.25;93.99;101674.94;5028012;28;20464;-47
2021/10/25 11:39:57;;;;;;;9.93;4.95;;;;;;;11.23;92.18;101671.63;5037206;22;20054;-48
2021/10/25 11:42:27;;;;;;;11.48;5.13;;;;;;;11.29;93.10;101670.63;4989284;28;20047;-46
2021/10/25 11:45:02;;;;;;;15.13;5.00;;;;;;;11.33;93.18;101666.34;4990219;28;20046;-48
2021/10/25 11:47:33;;;;;;;11.02;5.15;;;;;;;11.31;90.87;101668.47;4989255;28;20145;-47
2021/10/25 11:50:24;;;;;;;13.57;5.10;;;;;;;11.34;92.64;101657.06;4989529;28;20054;-47
2021/10/25 11:52:55;;;;;;;9.63;4.70;;;;;;;11.39;92.02;101650.84;4988855;28;20073;-49
2021/10/25 11:55:30;;;;;;;8.45;4.40;;;;;;;11.29;89.95;101654.25;4991038;28;20117;-47
2021/10/25 11:58:00;;;;;;;9.17;4.10;;;;;;;11.26;89.97;101649.31;4991777;28;20412;-49
2021/10/25 12:00:30;;;;;;;11.75;4.50;;;;;;;11.24;89.30;101651.47;4990816;28;20043;-46
2021/10/25 12:03:24;;;;;;;8.63;3.95;;;;;;;11.25;89.57;101653.09;4989574;28;20390;-48
2021/10/25 12:05:55;;;;;;;10.38;4.35;;;;;;;11.32;89.72;101648.28;4990924;28;20036;-47
2021/10/25 12:08:23;;;;;;;12.75;5.50;;;;;;;11.42;90.77;101645.69;4991646;28;20133;-45
2021/10/25 12:10:53;;;;;;;12.32;5.07;;;;;;;11.50;90.67;101648.00;4991743;28;20055;-48
2021/10/25 12:13:21;;;;;;;13.45;5.20;;;;;;;11.58;91.44;101629.53;4991908;28;20731;-46
2021/10/25 12:15:55;;;;;;;11.50;4.95;;;;;;;11.66;92.26;101632.59;4991101;28;20531;-46
2021/10/25 12:18:28;;;;;;;16.23;5.28;;;;;;;11.70;92.36;101631.03;4991696;28;20405;-47
2021/10/25 12:21:06;;;;;;;11.00;4.40;;;;;;;11.72;92.31;101631.59;4991828;28;20046;-46
2021/10/25 12:23:46;;;;;;;8.43;3.92;;;;;;;11.68;90.73;101635.09;4991333;28;20043;-46
2021/10/25 12:26:15;;;;;;;9.73;4.63;;;;;;;11.68;90.16;101624.19;4991210;28;20058;-48
2021/10/25 12:28:43;;;;;;;12.57;5.40;;;;;;;11.73;91.00;101627.78;4991598;28;20053;-48
2021/10/25 12:31:17;;;;;;;10.82;4.60;;;;;;;11.80;90.34;101632.22;4990996;28;20050;-47
2021/10/25 12:33:46;;;;;;;12.40;4.95;;;;;;;11.83;90.81;101635.25;4991314;28;20046;-48
2021/10/25 12:36:21;;;;;;;11.70;5.47;;;;;;;11.87;92.70;101641.06;4991474;28;20046;-46
2021/10/25 12:38:54;;;;;;;13.27;5.28;;;;;;;12.02;96.56;101638.50;4991108;28;20054;-45
2021/10/25 12:41:23;;;;;;;13.07;5.97;;;;;;;12.07;96.42;101638.53;4991349;28;20043;-46
2021/10/25 12:43:55;;;;;;;9.82;4.75;;;;;;;11.94;94.13;101639.78;5005233;28;20049;-48
2021/10/25 12:46:33;;;;;;;12.13;4.53;;;;;;;11.90;93.31;101635.09;4990961;28;20042;-44
2021/10/25 12:49:02;;;;;;;10.57;4.38;;;;;;;11.88;93.41;101620.88;4994790;28;20038;-47
2021/10/25 12:51:35;;;;;;;14.05;4.90;;;;;;;11.97;95.83;101632.97;4994963;28;20056;-48
2021/10/25 12:54:10;;;;;;;11.05;4.60;;;;;;;11.96;93.40;101623.16;4994149;28;20038;-47
2021/10/25 12:56:39;;;;;;;11.30;5.15;;;;;;;11.94;92.76;101620.66;4995048;28;20039;-47
2021/10/25 12:59:08;;;;;;;12.02;5.07;;;;;;;11.99;93.63;101619.09;5009685;28;20038;-48
2021/10/25 13:01:36;;;;;;;9.50;4.63;;;;;;;11.98;93.21;101622.88;4994512;28;20050;-49
2021/10/25 13:04:05;;;;;;;10.38;4.88;;;;;;;12.02;93.78;101621.28;4994385;28;20040;-46
2021/10/25 13:06:35;;;;;;;11.57;4.63;;;;;;;12.07;94.77;101618.59;4994858;28;20045;-47
2021/10/25 13:09:08;;;;;;;10.15;4.85;;;;;;;12.12;94.44;101615.91;4994405;28;20043;-47
2021/10/25 13:11:36;;;;;;;12.65;4.78;;;;;;;12.11;92.14;101614.28;4994515;28;20113;-48
2021/10/25 13:14:08;;;;;;;9.63;4.13;;;;;;;12.12;92.71;101618.66;4992274;28;20497;-45
2021/10/25 13:16:46;;;;;;;10.43;4.50;;;;;;;12.26;93.55;101614.41;4993001;28;20052;-47
2021/10/25 13:19:17;;;;;;;11.05;4.70;;;;;;;12.28;93.13;101612.25;4994567;28;20057;-48
2021/10/25 13:21:46;;;;;;;12.55;5.13;;;;;;;12.29;94.06;101615.78;4994408;28;20494;-47
2021/10/25 13:24:14;;;;;;;7.15;4.10;;;;;;;12.21;91.97;101611.63;4993682;28;20077;-48
2021/10/25 13:26:49;;;;;;;9.07;4.28;;;;;;;12.17;91.81;101604.22;4994271;28;20049;-48
2021/10/25 13:29:16;;;;;;;8.38;4.60;;;;;;;12.24;93.54;101610.28;4993374;28;20520;-46